sensor_id;sensor_type;location;lat;lon;timestamp;P1;durP1;ratioP1;P2;durP2;ratioP2
32399;SDS011;45045;45.440;9.178;2022-08-19T00:00:12;4.60;;;1.52;;
32399;SDS011;45045;45.440;9.178;2022-08-19T00:02:39;4.63;;;1.60;;
32399;SDS011;45045;45.440;9.178;2022-08-19T00:05:05;6.72;;;1.60;;
32399;SDS011;45045;45.440;9.178;2022-08-19T00:07:31;6.43;;;1.80;;
32399;SDS011;45045;45.440;9.178;2022-08-19T00:09:57;5.97;;;2.13;;
32399;SDS011;45045;45.440;9.178;2022-08-19T00:12:22;6.18;;;1.60;;
32399;SDS011;45045;45.440;9.178;2022-08-19T00:14:48;3.40;;;1.63;;
32399;SDS011;45045;45.440;9.178;2022-08-19T00:17:14;3.85;;;1.30;;
32399;SDS011;45045;45.440;9.178;2022-08-19T00:19:39;4.72;;;1.52;;
32399;SDS011;45045;45.440;9.178;2022-08-19T00:22:05;3.58;;;1.52;;
32399;SDS011;45045;45.440;9.178;2022-08-19T00:24:33;6.43;;;1.30;;
32399;SDS011;45045;45.440;9.178;2022-08-19T00:27:00;4.97;;;1.40;;
32399;SDS011;45045;45.440;9.178;2022-08-19T00:29:27;4.97;;;1.38;;
32399;SDS011;45045;45.440;9.178;2022-08-19T00:31:53;5.72;;;1.30;;
32399;SDS011;45045;45.440;9.178;2022-08-19T00:34:21;4.05;;;1.45;;
32399;SDS011;45045;45.440;9.178;2022-08-19T00:36:47;4.63;;;1.35;;
32399;SDS011;45045;45.440;9.178;2022-08-19T00:39:14;4.68;;;1.20;;
32399;SDS011;45045;45.440;9.178;2022-08-19T00:41:41;6.00;;;1.58;;
32399;SDS011;45045;45.440;9.178;2022-08-19T00:44:10;5.43;;;1.30;;
32399;SDS011;45045;45.440;9.178;2022-08-19T00:46:45;5.13;;;1.23;;
32399;SDS011;45045;45.440;9.178;2022-08-19T00:49:15;4.78;;;1.48;;
32399;SDS011;45045;45.440;9.178;2022-08-19T00:51:47;4.43;;;1.23;;
32399;SDS011;45045;45.440;9.178;2022-08-19T00:54:16;5.32;;;1.30;;
32399;SDS011;45045;45.440;9.178;2022-08-19T00:56:45;4.75;;;1.40;;
32399;SDS011;45045;45.440;9.178;2022-08-19T00:59:11;5.10;;;1.45;;
32399;SDS011;45045;45.440;9.178;2022-08-19T01:01:38;7.53;;;1.20;;
32399;SDS011;45045;45.440;9.178;2022-08-19T01:04:05;5.07;;;1.52;;
32399;SDS011;45045;45.440;9.178;2022-08-19T01:06:32;3.80;;;1.50;;
32399;SDS011;45045;45.440;9.178;2022-08-19T01:08:58;4.57;;;1.70;;
32399;SDS011;45045;45.440;9.178;2022-08-19T01:11:25;7.57;;;1.60;;
32399;SDS011;45045;45.440;9.178;2022-08-19T01:13:52;4.05;;;1.52;;
32399;SDS011;45045;45.440;9.178;2022-08-19T01:16:19;4.40;;;1.33;;
32399;SDS011;45045;45.440;9.178;2022-08-19T01:18:48;4.25;;;1.30;;
32399;SDS011;45045;45.440;9.178;2022-08-19T01:21:37;5.32;;;1.70;;
32399;SDS011;45045;45.440;9.178;2022-08-19T01:24:05;4.97;;;1.50;;
32399;SDS011;45045;45.440;9.178;2022-08-19T01:26:34;4.68;;;1.70;;
32399;SDS011;45045;45.440;9.178;2022-08-19T01:29:08;6.97;;;1.90;;
32399;SDS011;45045;45.440;9.178;2022-08-19T01:31:34;6.93;;;1.48;;
32399;SDS011;45045;45.440;9.178;2022-08-19T01:34:00;4.43;;;1.30;;
32399;SDS011;45045;45.440;9.178;2022-08-19T01:39:06;4.65;;;1.38;;
32399;SDS011;45045;45.440;9.178;2022-08-19T01:41:33;4.30;;;1.40;;
32399;SDS011;45045;45.440;9.178;2022-08-19T01:43:59;3.88;;;1.52;;
32399;SDS011;45045;45.440;9.178;2022-08-19T01:46:28;4.75;;;1.70;;
32399;SDS011;45045;45.440;9.178;2022-08-19T01:48:54;3.90;;;1.50;;
32399;SDS011;45045;45.440;9.178;2022-08-19T01:51:19;3.25;;;1.13;;
32399;SDS011;45045;45.440;9.178;2022-08-19T01:53:48;3.90;;;1.38;;
32399;SDS011;45045;45.440;9.178;2022-08-19T01:56:15;5.22;;;1.48;;
32399;SDS011;45045;45.440;9.178;2022-08-19T01:58:43;5.45;;;1.25;;
32399;SDS011;45045;45.440;9.178;2022-08-19T02:01:13;5.25;;;1.85;;
32399;SDS011;45045;45.440;9.178;2022-08-19T02:03:39;4.70;;;1.52;;
32399;SDS011;45045;45.440;9.178;2022-08-19T02:06:05;5.15;;;2.45;;
32399;SDS011;45045;45.440;9.178;2022-08-19T02:08:31;8.40;;;3.45;;
32399;SDS011;45045;45.440;9.178;2022-08-19T02:10:59;6.38;;;3.60;;
32399;SDS011;45045;45.440;9.178;2022-08-19T02:13:27;6.97;;;3.45;;
32399;SDS011;45045;45.440;9.178;2022-08-19T02:15:53;6.03;;;3.10;;
32399;SDS011;45045;45.440;9.178;2022-08-19T02:18:18;8.18;;;2.70;;
32399;SDS011;45045;45.440;9.178;2022-08-19T02:20:44;6.13;;;2.58;;
32399;SDS011;45045;45.440;9.178;2022-08-19T02:23:14;5.82;;;2.55;;
32399;SDS011;45045;45.440;9.178;2022-08-19T02:25:42;7.53;;;2.42;;
32399;SDS011;45045;45.440;9.178;2022-08-19T02:28:13;5.30;;;2.13;;
32399;SDS011;45045;45.440;9.178;2022-08-19T02:30:40;4.50;;;2.13;;
32399;SDS011;45045;45.440;9.178;2022-08-19T02:33:06;4.53;;;2.42;;
32399;SDS011;45045;45.440;9.178;2022-08-19T02:35:32;5.90;;;2.13;;
32399;SDS011;45045;45.440;9.178;2022-08-19T02:37:58;5.00;;;1.75;;
32399;SDS011;45045;45.440;9.178;2022-08-19T02:40:48;5.55;;;1.83;;
32399;SDS011;45045;45.440;9.178;2022-08-19T02:43:17;6.78;;;1.60;;
32399;SDS011;45045;45.440;9.178;2022-08-19T02:45:43;7.65;;;1.90;;
32399;SDS011;45045;45.440;9.178;2022-08-19T02:48:08;5.55;;;1.65;;
32399;SDS011;45045;45.440;9.178;2022-08-19T02:50:38;5.22;;;1.60;;
32399;SDS011;45045;45.440;9.178;2022-08-19T02:53:04;5.78;;;1.63;;
32399;SDS011;45045;45.440;9.178;2022-08-19T02:55:32;5.10;;;1.52;;
32399;SDS011;45045;45.440;9.178;2022-08-19T02:57:58;3.80;;;1.50;;
32399;SDS011;45045;45.440;9.178;2022-08-19T03:00:25;2.33;;;1.17;;
32399;SDS011;45045;45.440;9.178;2022-08-19T03:02:51;4.82;;;1.48;;
32399;SDS011;45045;45.440;9.178;2022-08-19T03:05:17;4.85;;;1.33;;
32399;SDS011;45045;45.440;9.178;2022-08-19T03:07:43;5.53;;;1.60;;
32399;SDS011;45045;45.440;9.178;2022-08-19T03:10:08;4.53;;;1.40;;
32399;SDS011;45045;45.440;9.178;2022-08-19T03:12:35;4.65;;;1.00;;
32399;SDS011;45045;45.440;9.178;2022-08-19T03:15:03;4.07;;;1.50;;
32399;SDS011;45045;45.440;9.178;2022-08-19T03:17:32;3.97;;;1.40;;
32399;SDS011;45045;45.440;9.178;2022-08-19T03:19:59;3.88;;;1.35;;
32399;SDS011;45045;45.440;9.178;2022-08-19T03:27:19;4.45;;;1.17;;
32399;SDS011;45045;45.440;9.178;2022-08-19T03:29:44;2.95;;;1.08;;
32399;SDS011;45045;45.440;9.178;2022-08-19T03:32:10;6.13;;;1.10;;
32399;SDS011;45045;45.440;9.178;2022-08-19T03:34:37;3.28;;;1.10;;
32399;SDS011;45045;45.440;9.178;2022-08-19T03:37:06;4.45;;;1.55;;
32399;SDS011;45045;45.440;9.178;2022-08-19T03:39:36;5.93;;;1.38;;
32399;SDS011;45045;45.440;9.178;2022-08-19T03:42:03;3.28;;;1.20;;
32399;SDS011;45045;45.440;9.178;2022-08-19T03:44:30;5.85;;;1.50;;
32399;SDS011;45045;45.440;9.178;2022-08-19T03:46:57;3.47;;;1.10;;
32399;SDS011;45045;45.440;9.178;2022-08-19T03:49:25;4.30;;;1.25;;
32399;SDS011;45045;45.440;9.178;2022-08-19T03:51:55;5.15;;;1.33;;
32399;SDS011;45045;45.440;9.178;2022-08-19T03:54:22;3.00;;;0.90;;
32399;SDS011;45045;45.440;9.178;2022-08-19T03:56:50;3.58;;;1.30;;
32399;SDS011;45045;45.440;9.178;2022-08-19T03:59:19;5.50;;;0.98;;
32399;SDS011;45045;45.440;9.178;2022-08-19T04:01:51;5.03;;;1.52;;
32399;SDS011;45045;45.440;9.178;2022-08-19T04:04:18;2.72;;;1.00;;
32399;SDS011;45045;45.440;9.178;2022-08-19T04:06:44;3.00;;;1.17;;
32399;SDS011;45045;45.440;9.178;2022-08-19T04:09:12;5.25;;;1.05;;
32399;SDS011;45045;45.440;9.178;2022-08-19T04:11:38;4.25;;;1.33;;
32399;SDS011;45045;45.440;9.178;2022-08-19T04:14:07;3.92;;;1.30;;
32399;SDS011;45045;45.440;9.178;2022-08-19T04:16:34;1.58;;;0.77;;
32399;SDS011;45045;45.440;9.178;2022-08-19T04:19:02;4.60;;;1.23;;
32399;SDS011;45045;45.440;9.178;2022-08-19T04:21:28;4.25;;;1.35;;
32399;SDS011;45045;45.440;9.178;2022-08-19T04:23:55;3.28;;;1.00;;
32399;SDS011;45045;45.440;9.178;2022-08-19T04:26:22;3.83;;;1.50;;
32399;SDS011;45045;45.440;9.178;2022-08-19T04:28:49;3.95;;;1.33;;
32399;SDS011;45045;45.440;9.178;2022-08-19T04:31:23;6.20;;;2.10;;
32399;SDS011;45045;45.440;9.178;2022-08-19T04:33:51;8.40;;;1.88;;
32399;SDS011;45045;45.440;9.178;2022-08-19T04:36:20;5.80;;;1.50;;
32399;SDS011;45045;45.440;9.178;2022-08-19T04:38:48;5.30;;;1.38;;
32399;SDS011;45045;45.440;9.178;2022-08-19T04:41:14;5.43;;;1.45;;
32399;SDS011;45045;45.440;9.178;2022-08-19T04:43:59;3.13;;;1.17;;
32399;SDS011;45045;45.440;9.178;2022-08-19T04:46:25;5.13;;;1.45;;
32399;SDS011;45045;45.440;9.178;2022-08-19T04:48:50;6.15;;;1.63;;
32399;SDS011;45045;45.440;9.178;2022-08-19T04:51:17;3.42;;;1.30;;
32399;SDS011;45045;45.440;9.178;2022-08-19T04:53:43;3.95;;;1.65;;
32399;SDS011;45045;45.440;9.178;2022-08-19T04:56:10;4.82;;;1.75;;
32399;SDS011;45045;45.440;9.178;2022-08-19T04:58:38;5.18;;;1.73;;
32399;SDS011;45045;45.440;9.178;2022-08-19T05:01:06;4.22;;;1.90;;
32399;SDS011;45045;45.440;9.178;2022-08-19T05:03:35;5.75;;;2.05;;
32399;SDS011;45045;45.440;9.178;2022-08-19T05:06:05;6.25;;;2.15;;
32399;SDS011;45045;45.440;9.178;2022-08-19T05:08:33;5.03;;;2.33;;
32399;SDS011;45045;45.440;9.178;2022-08-19T05:11:01;3.72;;;2.13;;
32399;SDS011;45045;45.440;9.178;2022-08-19T05:13:32;9.25;;;2.50;;
32399;SDS011;45045;45.440;9.178;2022-08-19T05:15:58;6.10;;;2.13;;
32399;SDS011;45045;45.440;9.178;2022-08-19T05:18:24;4.18;;;2.13;;
32399;SDS011;45045;45.440;9.178;2022-08-19T05:21:10;6.18;;;2.72;;
32399;SDS011;45045;45.440;9.178;2022-08-19T05:23:56;4.03;;;2.38;;
32399;SDS011;45045;45.440;9.178;2022-08-19T05:26:22;6.55;;;2.55;;
32399;SDS011;45045;45.440;9.178;2022-08-19T05:28:50;5.45;;;2.60;;
32399;SDS011;45045;45.440;9.178;2022-08-19T05:31:20;6.78;;;2.97;;
32399;SDS011;45045;45.440;9.178;2022-08-19T05:33:46;7.35;;;2.97;;
32399;SDS011;45045;45.440;9.178;2022-08-19T05:36:13;5.78;;;2.72;;
32399;SDS011;45045;45.440;9.178;2022-08-19T05:38:39;5.63;;;2.45;;
32399;SDS011;45045;45.440;9.178;2022-08-19T05:41:08;6.78;;;2.90;;
32399;SDS011;45045;45.440;9.178;2022-08-19T05:43:35;7.00;;;2.45;;
32399;SDS011;45045;45.440;9.178;2022-08-19T05:46:02;5.93;;;2.90;;
32399;SDS011;45045;45.440;9.178;2022-08-19T05:48:29;6.75;;;2.67;;
32399;SDS011;45045;45.440;9.178;2022-08-19T05:50:56;8.23;;;2.67;;
32399;SDS011;45045;45.440;9.178;2022-08-19T05:53:23;6.05;;;2.90;;
32399;SDS011;45045;45.440;9.178;2022-08-19T05:55:49;8.25;;;2.80;;
32399;SDS011;45045;45.440;9.178;2022-08-19T05:58:14;4.60;;;2.30;;
32399;SDS011;45045;45.440;9.178;2022-08-19T06:00:40;5.57;;;2.22;;
32399;SDS011;45045;45.440;9.178;2022-08-19T06:03:09;7.47;;;3.10;;
32399;SDS011;45045;45.440;9.178;2022-08-19T06:05:35;5.40;;;2.90;;
32399;SDS011;45045;45.440;9.178;2022-08-19T06:08:01;4.35;;;2.58;;
32399;SDS011;45045;45.440;9.178;2022-08-19T06:10:27;7.22;;;2.92;;
32399;SDS011;45045;45.440;9.178;2022-08-19T06:12:53;6.38;;;2.88;;
32399;SDS011;45045;45.440;9.178;2022-08-19T06:15:19;6.53;;;2.10;;
32399;SDS011;45045;45.440;9.178;2022-08-19T06:17:45;4.60;;;2.38;;
32399;SDS011;45045;45.440;9.178;2022-08-19T06:20:12;5.68;;;2.05;;
32399;SDS011;45045;45.440;9.178;2022-08-19T06:22:43;5.07;;;1.75;;
32399;SDS011;45045;45.440;9.178;2022-08-19T06:25:11;3.28;;;1.77;;
32399;SDS011;45045;45.440;9.178;2022-08-19T06:27:39;7.40;;;2.28;;
32399;SDS011;45045;45.440;9.178;2022-08-19T06:30:05;6.90;;;2.20;;
32399;SDS011;45045;45.440;9.178;2022-08-19T06:32:32;6.97;;;2.40;;
32399;SDS011;45045;45.440;9.178;2022-08-19T06:34:57;5.35;;;2.10;;
32399;SDS011;45045;45.440;9.178;2022-08-19T06:37:23;6.40;;;2.30;;
32399;SDS011;45045;45.440;9.178;2022-08-19T06:39:49;9.02;;;2.75;;
32399;SDS011;45045;45.440;9.178;2022-08-19T06:42:15;6.03;;;2.35;;
32399;SDS011;45045;45.440;9.178;2022-08-19T06:44:44;6.47;;;2.63;;
32399;SDS011;45045;45.440;9.178;2022-08-19T06:47:13;6.40;;;2.42;;
32399;SDS011;45045;45.440;9.178;2022-08-19T06:49:41;4.85;;;2.22;;
32399;SDS011;45045;45.440;9.178;2022-08-19T06:52:07;7.20;;;2.58;;
32399;SDS011;45045;45.440;9.178;2022-08-19T06:54:33;7.38;;;2.72;;
32399;SDS011;45045;45.440;9.178;2022-08-19T06:56:59;4.32;;;2.28;;
32399;SDS011;45045;45.440;9.178;2022-08-19T06:59:30;4.20;;;1.92;;
32399;SDS011;45045;45.440;9.178;2022-08-19T07:01:58;4.75;;;1.80;;
32399;SDS011;45045;45.440;9.178;2022-08-19T07:04:30;5.10;;;1.83;;
32399;SDS011;45045;45.440;9.178;2022-08-19T07:07:03;4.25;;;1.40;;
32399;SDS011;45045;45.440;9.178;2022-08-19T07:09:35;3.78;;;1.75;;
32399;SDS011;45045;45.440;9.178;2022-08-19T07:12:03;6.32;;;1.88;;
32399;SDS011;45045;45.440;9.178;2022-08-19T07:14:31;3.70;;;1.60;;
32399;SDS011;45045;45.440;9.178;2022-08-19T07:17:02;5.33;;;1.60;;
32399;SDS011;45045;45.440;9.178;2022-08-19T07:19:30;7.28;;;1.73;;
32399;SDS011;45045;45.440;9.178;2022-08-19T07:21:56;7.65;;;1.70;;
32399;SDS011;45045;45.440;9.178;2022-08-19T07:24:25;4.05;;;1.25;;
32399;SDS011;45045;45.440;9.178;2022-08-19T07:26:53;7.22;;;1.77;;
32399;SDS011;45045;45.440;9.178;2022-08-19T07:29:22;4.20;;;1.60;;
32399;SDS011;45045;45.440;9.178;2022-08-19T07:31:49;4.68;;;1.58;;
32399;SDS011;45045;45.440;9.178;2022-08-19T07:36:45;3.42;;;1.50;;
32399;SDS011;45045;45.440;9.178;2022-08-19T07:39:13;6.28;;;1.55;;
32399;SDS011;45045;45.440;9.178;2022-08-19T07:41:40;4.18;;;1.17;;
32399;SDS011;45045;45.440;9.178;2022-08-19T07:44:06;4.97;;;1.08;;
32399;SDS011;45045;45.440;9.178;2022-08-19T07:46:37;4.65;;;1.70;;
32399;SDS011;45045;45.440;9.178;2022-08-19T07:51:31;4.15;;;1.30;;
32399;SDS011;45045;45.440;9.178;2022-08-19T07:53:58;4.85;;;1.50;;
32399;SDS011;45045;45.440;9.178;2022-08-19T07:56:24;7.32;;;1.73;;
32399;SDS011;45045;45.440;9.178;2022-08-19T07:58:51;6.22;;;1.90;;
32399;SDS011;45045;45.440;9.178;2022-08-19T08:01:18;5.72;;;2.05;;
32399;SDS011;45045;45.440;9.178;2022-08-19T08:03:48;5.03;;;1.83;;
32399;SDS011;45045;45.440;9.178;2022-08-19T08:06:33;5.63;;;1.45;;
32399;SDS011;45045;45.440;9.178;2022-08-19T08:09:19;6.07;;;1.60;;
32399;SDS011;45045;45.440;9.178;2022-08-19T08:11:51;7.68;;;1.80;;
32399;SDS011;45045;45.440;9.178;2022-08-19T08:14:25;6.63;;;1.52;;
32399;SDS011;45045;45.440;9.178;2022-08-19T08:16:53;6.90;;;1.52;;
32399;SDS011;45045;45.440;9.178;2022-08-19T08:19:19;6.28;;;1.65;;
32399;SDS011;45045;45.440;9.178;2022-08-19T08:21:46;5.78;;;1.30;;
32399;SDS011;45045;45.440;9.178;2022-08-19T08:24:13;4.13;;;1.60;;
32399;SDS011;45045;45.440;9.178;2022-08-19T08:26:39;6.93;;;1.55;;
32399;SDS011;45045;45.440;9.178;2022-08-19T08:29:05;8.02;;;1.50;;
32399;SDS011;45045;45.440;9.178;2022-08-19T08:31:35;5.32;;;1.58;;
32399;SDS011;45045;45.440;9.178;2022-08-19T08:34:01;6.82;;;1.10;;
32399;SDS011;45045;45.440;9.178;2022-08-19T08:36:26;5.88;;;1.50;;
32399;SDS011;45045;45.440;9.178;2022-08-19T08:38:52;6.13;;;1.70;;
32399;SDS011;45045;45.440;9.178;2022-08-19T08:44:38;7.05;;;1.60;;
32399;SDS011;45045;45.440;9.178;2022-08-19T08:47:11;4.53;;;1.92;;
32399;SDS011;45045;45.440;9.178;2022-08-19T08:52:19;4.30;;;1.60;;
32399;SDS011;45045;45.440;9.178;2022-08-19T08:54:55;4.22;;;1.75;;
32399;SDS011;45045;45.440;9.178;2022-08-19T09:00:33;4.45;;;1.80;;
32399;SDS011;45045;45.440;9.178;2022-08-19T09:03:05;7.78;;;1.98;;
32399;SDS011;45045;45.440;9.178;2022-08-19T09:11:10;7.03;;;1.80;;
32399;SDS011;45045;45.440;9.178;2022-08-19T09:16:28;7.28;;;2.00;;
32399;SDS011;45045;45.440;9.178;2022-08-19T09:18:56;4.15;;;1.85;;
32399;SDS011;45045;45.440;9.178;2022-08-19T09:21:25;4.50;;;1.90;;
32399;SDS011;45045;45.440;9.178;2022-08-19T09:23:52;4.57;;;1.23;;
32399;SDS011;45045;45.440;9.178;2022-08-19T09:26:19;5.40;;;2.15;;
32399;SDS011;45045;45.440;9.178;2022-08-19T09:28:47;6.45;;;2.03;;
32399;SDS011;45045;45.440;9.178;2022-08-19T09:31:17;7.20;;;1.50;;
32399;SDS011;45045;45.440;9.178;2022-08-19T09:33:44;5.85;;;1.95;;
32399;SDS011;45045;45.440;9.178;2022-08-19T09:36:12;3.13;;;0.95;;
32399;SDS011;45045;45.440;9.178;2022-08-19T09:38:39;4.55;;;1.15;;
32399;SDS011;45045;45.440;9.178;2022-08-19T09:41:07;7.63;;;1.60;;
32399;SDS011;45045;45.440;9.178;2022-08-19T09:43:36;3.38;;;1.50;;
32399;SDS011;45045;45.440;9.178;2022-08-19T09:46:03;5.43;;;1.38;;
32399;SDS011;45045;45.440;9.178;2022-08-19T09:48:34;4.40;;;1.25;;
32399;SDS011;45045;45.440;9.178;2022-08-19T09:51:08;2.45;;;0.90;;
32399;SDS011;45045;45.440;9.178;2022-08-19T09:53:35;5.95;;;1.40;;
32399;SDS011;45045;45.440;9.178;2022-08-19T09:56:03;3.78;;;1.20;;
32399;SDS011;45045;45.440;9.178;2022-08-19T09:58:30;4.93;;;1.50;;
32399;SDS011;45045;45.440;9.178;2022-08-19T10:00:57;3.58;;;0.80;;
32399;SDS011;45045;45.440;9.178;2022-08-19T10:03:25;4.05;;;1.00;;
32399;SDS011;45045;45.440;9.178;2022-08-19T10:05:52;3.35;;;1.00;;
32399;SDS011;45045;45.440;9.178;2022-08-19T10:08:22;2.85;;;0.80;;
32399;SDS011;45045;45.440;9.178;2022-08-19T10:10:54;2.00;;;0.80;;
32399;SDS011;45045;45.440;9.178;2022-08-19T10:13:21;4.10;;;0.80;;
32399;SDS011;45045;45.440;9.178;2022-08-19T10:15:50;6.05;;;0.70;;
32399;SDS011;45045;45.440;9.178;2022-08-19T10:18:18;4.32;;;0.77;;
32399;SDS011;45045;45.440;9.178;2022-08-19T10:20:48;4.05;;;0.70;;
32399;SDS011;45045;45.440;9.178;2022-08-19T10:23:15;2.25;;;0.50;;
32399;SDS011;45045;45.440;9.178;2022-08-19T10:25:41;2.08;;;0.70;;
32399;SDS011;45045;45.440;9.178;2022-08-19T10:28:07;6.20;;;1.02;;
32399;SDS011;45045;45.440;9.178;2022-08-19T10:30:36;2.83;;;0.60;;
32399;SDS011;45045;45.440;9.178;2022-08-19T10:33:03;2.53;;;0.80;;
32399;SDS011;45045;45.440;9.178;2022-08-19T10:35:29;1.77;;;0.40;;
32399;SDS011;45045;45.440;9.178;2022-08-19T10:37:55;5.68;;;0.70;;
32399;SDS011;45045;45.440;9.178;2022-08-19T10:40:26;2.42;;;0.60;;
32399;SDS011;45045;45.440;9.178;2022-08-19T10:42:53;3.08;;;0.73;;
32399;SDS011;45045;45.440;9.178;2022-08-19T10:45:20;2.33;;;0.60;;
32399;SDS011;45045;45.440;9.178;2022-08-19T10:47:48;2.60;;;0.50;;
32399;SDS011;45045;45.440;9.178;2022-08-19T10:50:13;3.38;;;0.70;;
32399;SDS011;45045;45.440;9.178;2022-08-19T10:53:03;3.85;;;0.77;;
32399;SDS011;45045;45.440;9.178;2022-08-19T10:55:30;2.20;;;0.63;;
32399;SDS011;45045;45.440;9.178;2022-08-19T10:58:15;2.30;;;0.80;;
32399;SDS011;45045;45.440;9.178;2022-08-19T11:00:42;3.08;;;0.80;;
32399;SDS011;45045;45.440;9.178;2022-08-19T11:03:15;3.35;;;0.57;;
32399;SDS011;45045;45.440;9.178;2022-08-19T11:05:41;4.13;;;0.93;;
32399;SDS011;45045;45.440;9.178;2022-08-19T11:08:07;2.92;;;0.75;;
32399;SDS011;45045;45.440;9.178;2022-08-19T11:10:36;4.55;;;0.73;;
32399;SDS011;45045;45.440;9.178;2022-08-19T11:13:05;1.95;;;0.50;;
32399;SDS011;45045;45.440;9.178;2022-08-19T11:15:31;3.38;;;0.90;;
32399;SDS011;45045;45.440;9.178;2022-08-19T11:17:58;3.03;;;0.70;;
32399;SDS011;45045;45.440;9.178;2022-08-19T11:20:24;2.33;;;0.68;;
32399;SDS011;45045;45.440;9.178;2022-08-19T11:22:51;2.47;;;0.55;;
32399;SDS011;45045;45.440;9.178;2022-08-19T11:25:18;2.78;;;0.60;;
32399;SDS011;45045;45.440;9.178;2022-08-19T11:27:44;2.35;;;0.60;;
32399;SDS011;45045;45.440;9.178;2022-08-19T11:30:12;2.08;;;0.63;;
32399;SDS011;45045;45.440;9.178;2022-08-19T11:32:39;3.80;;;0.70;;
32399;SDS011;45045;45.440;9.178;2022-08-19T11:35:06;3.75;;;0.85;;
32399;SDS011;45045;45.440;9.178;2022-08-19T11:37:32;1.75;;;0.50;;
32399;SDS011;45045;45.440;9.178;2022-08-19T11:40:02;3.67;;;0.70;;
32399;SDS011;45045;45.440;9.178;2022-08-19T11:42:31;1.90;;;0.57;;
32399;SDS011;45045;45.440;9.178;2022-08-19T11:45:16;3.72;;;0.85;;
32399;SDS011;45045;45.440;9.178;2022-08-19T11:47:41;2.72;;;0.95;;
32399;SDS011;45045;45.440;9.178;2022-08-19T11:50:08;2.47;;;0.82;;
32399;SDS011;45045;45.440;9.178;2022-08-19T11:52:34;3.38;;;0.63;;
32399;SDS011;45045;45.440;9.178;2022-08-19T11:55:00;2.13;;;0.60;;
32399;SDS011;45045;45.440;9.178;2022-08-19T11:57:26;2.83;;;0.73;;
32399;SDS011;45045;45.440;9.178;2022-08-19T11:59:51;3.33;;;0.68;;
32399;SDS011;45045;45.440;9.178;2022-08-19T12:02:17;3.22;;;0.70;;
32399;SDS011;45045;45.440;9.178;2022-08-19T12:04:44;3.13;;;0.73;;
32399;SDS011;45045;45.440;9.178;2022-08-19T12:07:09;3.47;;;0.77;;
32399;SDS011;45045;45.440;9.178;2022-08-19T12:09:35;2.22;;;1.02;;
32399;SDS011;45045;45.440;9.178;2022-08-19T12:12:01;3.35;;;0.80;;
32399;SDS011;45045;45.440;9.178;2022-08-19T12:14:30;2.00;;;0.50;;
32399;SDS011;45045;45.440;9.178;2022-08-19T12:16:56;4.63;;;0.75;;
32399;SDS011;45045;45.440;9.178;2022-08-19T12:19:23;2.40;;;0.82;;
32399;SDS011;45045;45.440;9.178;2022-08-19T12:21:49;3.33;;;0.93;;
32399;SDS011;45045;45.440;9.178;2022-08-19T12:24:16;3.65;;;0.90;;
32399;SDS011;45045;45.440;9.178;2022-08-19T12:26:47;3.13;;;1.13;;
32399;SDS011;45045;45.440;9.178;2022-08-19T12:29:13;3.42;;;0.93;;
32399;SDS011;45045;45.440;9.178;2022-08-19T12:31:39;2.78;;;0.90;;
32399;SDS011;45045;45.440;9.178;2022-08-19T12:34:05;3.10;;;0.77;;
32399;SDS011;45045;45.440;9.178;2022-08-19T12:36:34;1.90;;;0.70;;
32399;SDS011;45045;45.440;9.178;2022-08-19T12:38:59;3.10;;;0.57;;
32399;SDS011;45045;45.440;9.178;2022-08-19T12:41:26;1.83;;;0.70;;
32399;SDS011;45045;45.440;9.178;2022-08-19T12:43:52;3.40;;;1.05;;
32399;SDS011;45045;45.440;9.178;2022-08-19T12:46:18;2.17;;;0.80;;
32399;SDS011;45045;45.440;9.178;2022-08-19T12:48:44;3.55;;;0.70;;
32399;SDS011;45045;45.440;9.178;2022-08-19T12:51:12;3.92;;;0.88;;
32399;SDS011;45045;45.440;9.178;2022-08-19T12:53:40;2.97;;;0.73;;
32399;SDS011;45045;45.440;9.178;2022-08-19T12:56:07;3.80;;;0.80;;
32399;SDS011;45045;45.440;9.178;2022-08-19T12:58:34;1.25;;;0.47;;
32399;SDS011;45045;45.440;9.178;2022-08-19T13:01:05;3.05;;;0.90;;
32399;SDS011;45045;45.440;9.178;2022-08-19T13:03:32;4.10;;;0.70;;
32399;SDS011;45045;45.440;9.178;2022-08-19T13:05:58;2.83;;;0.75;;
32399;SDS011;45045;45.440;9.178;2022-08-19T13:08:24;1.40;;;0.65;;
32399;SDS011;45045;45.440;9.178;2022-08-19T13:10:49;2.92;;;0.80;;
32399;SDS011;45045;45.440;9.178;2022-08-19T13:13:15;1.77;;;0.77;;
32399;SDS011;45045;45.440;9.178;2022-08-19T13:15:41;4.05;;;0.98;;
32399;SDS011;45045;45.440;9.178;2022-08-19T13:18:09;1.70;;;0.70;;
32399;SDS011;45045;45.440;9.178;2022-08-19T13:20:37;3.50;;;0.85;;
32399;SDS011;45045;45.440;9.178;2022-08-19T13:23:05;4.05;;;0.93;;
32399;SDS011;45045;45.440;9.178;2022-08-19T13:25:31;2.40;;;0.70;;
32399;SDS011;45045;45.440;9.178;2022-08-19T13:27:58;2.70;;;1.00;;
32399;SDS011;45045;45.440;9.178;2022-08-19T13:30:24;1.92;;;0.70;;
32399;SDS011;45045;45.440;9.178;2022-08-19T13:33:08;3.47;;;0.90;;
32399;SDS011;45045;45.440;9.178;2022-08-19T13:35:49;3.13;;;0.80;;
32399;SDS011;45045;45.440;9.178;2022-08-19T13:38:20;3.03;;;1.00;;
32399;SDS011;45045;45.440;9.178;2022-08-19T13:40:47;3.33;;;0.80;;
32399;SDS011;45045;45.440;9.178;2022-08-19T13:43:15;2.55;;;1.10;;
32399;SDS011;45045;45.440;9.178;2022-08-19T13:45:42;2.25;;;0.70;;
32399;SDS011;45045;45.440;9.178;2022-08-19T13:48:08;2.05;;;0.73;;
32399;SDS011;45045;45.440;9.178;2022-08-19T13:50:34;3.10;;;1.00;;
32399;SDS011;45045;45.440;9.178;2022-08-19T13:53:07;3.03;;;1.00;;
32399;SDS011;45045;45.440;9.178;2022-08-19T13:55:34;4.57;;;0.77;;
32399;SDS011;45045;45.440;9.178;2022-08-19T13:58:02;6.95;;;1.33;;
32399;SDS011;45045;45.440;9.178;2022-08-19T14:00:29;2.58;;;0.75;;
32399;SDS011;45045;45.440;9.178;2022-08-19T14:02:57;2.03;;;0.70;;
32399;SDS011;45045;45.440;9.178;2022-08-19T14:05:24;1.83;;;0.80;;
32399;SDS011;45045;45.440;9.178;2022-08-19T14:07:52;5.30;;;0.93;;
32399;SDS011;45045;45.440;9.178;2022-08-19T14:10:18;3.22;;;0.88;;
32399;SDS011;45045;45.440;9.178;2022-08-19T14:12:44;3.30;;;1.10;;
32399;SDS011;45045;45.440;9.178;2022-08-19T14:15:10;2.88;;;0.93;;
32399;SDS011;45045;45.440;9.178;2022-08-19T14:17:40;3.53;;;0.70;;
32399;SDS011;45045;45.440;9.178;2022-08-19T14:20:11;2.58;;;0.90;;
32399;SDS011;45045;45.440;9.178;2022-08-19T14:22:39;3.63;;;1.00;;
32399;SDS011;45045;45.440;9.178;2022-08-19T14:25:06;2.75;;;0.60;;
32399;SDS011;45045;45.440;9.178;2022-08-19T14:27:34;3.80;;;0.70;;
32399;SDS011;45045;45.440;9.178;2022-08-19T14:30:02;2.78;;;0.82;;
32399;SDS011;45045;45.440;9.178;2022-08-19T14:32:29;2.15;;;0.60;;
32399;SDS011;45045;45.440;9.178;2022-08-19T14:34:55;2.83;;;0.70;;
32399;SDS011;45045;45.440;9.178;2022-08-19T14:37:20;2.75;;;0.82;;
32399;SDS011;45045;45.440;9.178;2022-08-19T14:39:47;2.38;;;0.63;;
32399;SDS011;45045;45.440;9.178;2022-08-19T14:42:12;2.22;;;0.80;;
32399;SDS011;45045;45.440;9.178;2022-08-19T14:44:40;1.50;;;0.20;;
32399;SDS011;45045;45.440;9.178;2022-08-19T14:47:06;1.52;;;0.38;;
32399;SDS011;45045;45.440;9.178;2022-08-19T14:49:32;0.95;;;0.38;;
32399;SDS011;45045;45.440;9.178;2022-08-19T14:51:58;1.17;;;0.20;;
32399;SDS011;45045;45.440;9.178;2022-08-19T14:54:24;3.22;;;0.30;;
32399;SDS011;45045;45.440;9.178;2022-08-19T14:56:50;1.13;;;0.30;;
32399;SDS011;45045;45.440;9.178;2022-08-19T14:59:16;3.42;;;0.32;;
32399;SDS011;45045;45.440;9.178;2022-08-19T15:01:41;1.02;;;0.30;;
32399;SDS011;45045;45.440;9.178;2022-08-19T15:04:07;2.08;;;0.30;;
32399;SDS011;45045;45.440;9.178;2022-08-19T15:06:33;1.50;;;0.38;;
32399;SDS011;45045;45.440;9.178;2022-08-19T15:08:59;0.80;;;0.20;;
32399;SDS011;45045;45.440;9.178;2022-08-19T15:11:26;0.73;;;0.20;;
32399;SDS011;45045;45.440;9.178;2022-08-19T15:13:53;1.52;;;0.20;;
32399;SDS011;45045;45.440;9.178;2022-08-19T15:16:20;0.82;;;0.20;;
32399;SDS011;45045;45.440;9.178;2022-08-19T15:18:49;1.08;;;0.30;;
32399;SDS011;45045;45.440;9.178;2022-08-19T15:21:17;0.73;;;0.20;;